sensor_id;sensor_type;location;lat;lon;timestamp;P1;durP1;ratioP1;P2;durP2;ratioP2
64820;SDS011;51256;55.654;37.264;2022-08-16T00:01:16;13.27;;;5.43;;
64820;SDS011;51256;55.654;37.264;2022-08-16T00:03:43;10.45;;;4.85;;
64820;SDS011;51256;55.654;37.264;2022-08-16T00:06:09;12.75;;;5.70;;
64820;SDS011;51256;55.654;37.264;2022-08-16T00:08:35;13.85;;;5.78;;
64820;SDS011;51256;55.654;37.264;2022-08-16T00:11:02;8.68;;;4.85;;
64820;SDS011;51256;55.654;37.264;2022-08-16T00:13:33;9.93;;;5.00;;
64820;SDS011;51256;55.654;37.264;2022-08-16T00:15:59;12.23;;;5.20;;
64820;SDS011;51256;55.654;37.264;2022-08-16T00:18:24;9.82;;;5.05;;
64820;SDS011;51256;55.654;37.264;2022-08-16T00:20:50;16.63;;;5.43;;
64820;SDS011;51256;55.654;37.264;2022-08-16T00:23:15;7.78;;;5.22;;
64820;SDS011;51256;55.654;37.264;2022-08-16T00:25:42;14.18;;;5.47;;
64820;SDS011;51256;55.654;37.264;2022-08-16T00:28:08;11.85;;;5.30;;
64820;SDS011;51256;55.654;37.264;2022-08-16T00:30:34;9.30;;;5.35;;
64820;SDS011;51256;55.654;37.264;2022-08-16T00:32:59;9.20;;;5.50;;
64820;SDS011;51256;55.654;37.264;2022-08-16T00:35:30;16.23;;;5.63;;
64820;SDS011;51256;55.654;37.264;2022-08-16T00:37:59;14.82;;;6.00;;
64820;SDS011;51256;55.654;37.264;2022-08-16T00:40:34;12.18;;;5.90;;
64820;SDS011;51256;55.654;37.264;2022-08-16T00:43:16;9.07;;;5.68;;
64820;SDS011;51256;55.654;37.264;2022-08-16T00:48:25;11.68;;;6.03;;
64820;SDS011;51256;55.654;37.264;2022-08-16T00:50:51;9.23;;;5.70;;
64820;SDS011;51256;55.654;37.264;2022-08-16T00:53:17;12.18;;;5.63;;
64820;SDS011;51256;55.654;37.264;2022-08-16T00:55:44;8.93;;;5.60;;
64820;SDS011;51256;55.654;37.264;2022-08-16T00:58:13;9.95;;;6.22;;
64820;SDS011;51256;55.654;37.264;2022-08-16T01:00:40;12.48;;;5.82;;
64820;SDS011;51256;55.654;37.264;2022-08-16T01:03:09;14.20;;;5.68;;
64820;SDS011;51256;55.654;37.264;2022-08-16T01:08:03;11.82;;;5.72;;
64820;SDS011;51256;55.654;37.264;2022-08-16T01:10:31;13.38;;;5.68;;
64820;SDS011;51256;55.654;37.264;2022-08-16T01:12:58;11.40;;;6.13;;
64820;SDS011;51256;55.654;37.264;2022-08-16T01:15:26;11.13;;;6.53;;
64820;SDS011;51256;55.654;37.264;2022-08-16T01:17:52;10.23;;;6.07;;
64820;SDS011;51256;55.654;37.264;2022-08-16T01:20:20;12.95;;;5.82;;
64820;SDS011;51256;55.654;37.264;2022-08-16T01:25:28;14.95;;;6.13;;
64820;SDS011;51256;55.654;37.264;2022-08-16T01:27:59;12.38;;;5.88;;
64820;SDS011;51256;55.654;37.264;2022-08-16T01:30:28;14.32;;;6.05;;
64820;SDS011;51256;55.654;37.264;2022-08-16T01:32:57;17.15;;;5.97;;
64820;SDS011;51256;55.654;37.264;2022-08-16T01:35:29;10.52;;;5.93;;
64820;SDS011;51256;55.654;37.264;2022-08-16T01:38:12;11.73;;;6.32;;
64820;SDS011;51256;55.654;37.264;2022-08-16T01:41:15;12.23;;;5.82;;
64820;SDS011;51256;55.654;37.264;2022-08-16T01:43:46;11.15;;;5.88;;
64820;SDS011;51256;55.654;37.264;2022-08-16T01:48:47;13.70;;;5.90;;
64820;SDS011;51256;55.654;37.264;2022-08-16T01:51:13;18.83;;;6.05;;
64820;SDS011;51256;55.654;37.264;2022-08-16T01:53:42;8.83;;;6.00;;
64820;SDS011;51256;55.654;37.264;2022-08-16T01:56:08;16.50;;;6.10;;
64820;SDS011;51256;55.654;37.264;2022-08-16T01:58:33;16.33;;;6.15;;
64820;SDS011;51256;55.654;37.264;2022-08-16T02:00:59;13.02;;;5.95;;
64820;SDS011;51256;55.654;37.264;2022-08-16T02:03:24;13.57;;;6.20;;
64820;SDS011;51256;55.654;37.264;2022-08-16T02:05:50;12.43;;;5.93;;
64820;SDS011;51256;55.654;37.264;2022-08-16T02:08:15;12.20;;;6.00;;
64820;SDS011;51256;55.654;37.264;2022-08-16T02:10:41;9.60;;;5.93;;
64820;SDS011;51256;55.654;37.264;2022-08-16T02:13:07;10.63;;;6.10;;
64820;SDS011;51256;55.654;37.264;2022-08-16T02:15:33;11.63;;;6.68;;
64820;SDS011;51256;55.654;37.264;2022-08-16T02:18:01;10.23;;;5.90;;
64820;SDS011;51256;55.654;37.264;2022-08-16T02:20:29;12.77;;;6.40;;
64820;SDS011;51256;55.654;37.264;2022-08-16T02:25:24;12.65;;;5.97;;
64820;SDS011;51256;55.654;37.264;2022-08-16T02:27:51;12.35;;;6.25;;
64820;SDS011;51256;55.654;37.264;2022-08-16T02:30:22;15.88;;;6.40;;
64820;SDS011;51256;55.654;37.264;2022-08-16T02:32:50;12.57;;;5.95;;
64820;SDS011;51256;55.654;37.264;2022-08-16T02:35:16;11.70;;;6.20;;
64820;SDS011;51256;55.654;37.264;2022-08-16T02:37:41;12.65;;;6.30;;
64820;SDS011;51256;55.654;37.264;2022-08-16T02:40:08;14.98;;;6.15;;
64820;SDS011;51256;55.654;37.264;2022-08-16T02:42:35;15.27;;;6.35;;
64820;SDS011;51256;55.654;37.264;2022-08-16T02:45:01;14.57;;;6.45;;
64820;SDS011;51256;55.654;37.264;2022-08-16T02:47:27;16.58;;;6.70;;
64820;SDS011;51256;55.654;37.264;2022-08-16T02:49:53;14.85;;;6.15;;
64820;SDS011;51256;55.654;37.264;2022-08-16T02:52:18;14.88;;;6.43;;
64820;SDS011;51256;55.654;37.264;2022-08-16T02:54:44;14.30;;;6.35;;
64820;SDS011;51256;55.654;37.264;2022-08-16T02:57:12;21.45;;;6.15;;
64820;SDS011;51256;55.654;37.264;2022-08-16T02:59:38;10.98;;;6.00;;
64820;SDS011;51256;55.654;37.264;2022-08-16T03:02:06;11.05;;;6.22;;
64820;SDS011;51256;55.654;37.264;2022-08-16T03:04:34;10.55;;;6.22;;
64820;SDS011;51256;55.654;37.264;2022-08-16T03:07:00;13.18;;;6.20;;
64820;SDS011;51256;55.654;37.264;2022-08-16T03:09:25;12.15;;;6.47;;
64820;SDS011;51256;55.654;37.264;2022-08-16T03:11:51;13.48;;;6.00;;
64820;SDS011;51256;55.654;37.264;2022-08-16T03:14:16;15.90;;;6.20;;
64820;SDS011;51256;55.654;37.264;2022-08-16T03:16:42;11.55;;;5.95;;
64820;SDS011;51256;55.654;37.264;2022-08-16T03:19:08;13.30;;;6.22;;
64820;SDS011;51256;55.654;37.264;2022-08-16T03:21:34;10.40;;;6.15;;
64820;SDS011;51256;55.654;37.264;2022-08-16T03:24:00;16.45;;;6.32;;
64820;SDS011;51256;55.654;37.264;2022-08-16T03:26:25;13.35;;;6.78;;
64820;SDS011;51256;55.654;37.264;2022-08-16T03:28:51;10.65;;;6.22;;
64820;SDS011;51256;55.654;37.264;2022-08-16T03:31:16;12.75;;;6.57;;
64820;SDS011;51256;55.654;37.264;2022-08-16T03:33:42;11.13;;;6.45;;
64820;SDS011;51256;55.654;37.264;2022-08-16T03:36:07;13.85;;;7.28;;
64820;SDS011;51256;55.654;37.264;2022-08-16T03:38:33;11.88;;;6.22;;
64820;SDS011;51256;55.654;37.264;2022-08-16T03:41:00;11.82;;;6.55;;
64820;SDS011;51256;55.654;37.264;2022-08-16T03:43:27;15.35;;;6.22;;
64820;SDS011;51256;55.654;37.264;2022-08-16T03:45:54;11.23;;;6.63;;
64820;SDS011;51256;55.654;37.264;2022-08-16T03:48:22;12.73;;;6.20;;
64820;SDS011;51256;55.654;37.264;2022-08-16T03:50:49;10.10;;;6.28;;
64820;SDS011;51256;55.654;37.264;2022-08-16T03:53:15;19.33;;;6.13;;
64820;SDS011;51256;55.654;37.264;2022-08-16T03:55:40;9.38;;;6.18;;
64820;SDS011;51256;55.654;37.264;2022-08-16T03:58:06;10.65;;;5.95;;
64820;SDS011;51256;55.654;37.264;2022-08-16T04:00:31;10.70;;;6.00;;
64820;SDS011;51256;55.654;37.264;2022-08-16T04:02:58;12.15;;;5.72;;
64820;SDS011;51256;55.654;37.264;2022-08-16T04:05:31;10.82;;;5.90;;
64820;SDS011;51256;55.654;37.264;2022-08-16T04:07:59;10.77;;;5.88;;
64820;SDS011;51256;55.654;37.264;2022-08-16T04:10:25;13.88;;;6.32;;
64820;SDS011;51256;55.654;37.264;2022-08-16T04:12:51;11.43;;;6.22;;
64820;SDS011;51256;55.654;37.264;2022-08-16T04:15:16;14.40;;;6.07;;
64820;SDS011;51256;55.654;37.264;2022-08-16T04:17:42;11.43;;;5.82;;
64820;SDS011;51256;55.654;37.264;2022-08-16T04:20:09;15.00;;;6.32;;
64820;SDS011;51256;55.654;37.264;2022-08-16T04:22:37;18.80;;;6.63;;
64820;SDS011;51256;55.654;37.264;2022-08-16T04:25:04;14.57;;;6.30;;
64820;SDS011;51256;55.654;37.264;2022-08-16T04:27:31;11.38;;;5.90;;
64820;SDS011;51256;55.654;37.264;2022-08-16T04:29:57;9.57;;;6.03;;
64820;SDS011;51256;55.654;37.264;2022-08-16T04:32:23;16.80;;;6.03;;
64820;SDS011;51256;55.654;37.264;2022-08-16T04:34:49;11.85;;;5.93;;
64820;SDS011;51256;55.654;37.264;2022-08-16T04:37:14;13.43;;;6.70;;
64820;SDS011;51256;55.654;37.264;2022-08-16T04:39:40;13.80;;;5.72;;
64820;SDS011;51256;55.654;37.264;2022-08-16T04:42:06;13.75;;;6.63;;
64820;SDS011;51256;55.654;37.264;2022-08-16T04:44:31;18.88;;;5.88;;
64820;SDS011;51256;55.654;37.264;2022-08-16T04:46:57;10.60;;;5.70;;
64820;SDS011;51256;55.654;37.264;2022-08-16T04:49:23;11.23;;;5.63;;
64820;SDS011;51256;55.654;37.264;2022-08-16T04:51:49;8.40;;;5.63;;
64820;SDS011;51256;55.654;37.264;2022-08-16T04:54:15;13.82;;;5.70;;
64820;SDS011;51256;55.654;37.264;2022-08-16T04:56:41;12.63;;;5.80;;
64820;SDS011;51256;55.654;37.264;2022-08-16T04:59:07;12.35;;;5.63;;
64820;SDS011;51256;55.654;37.264;2022-08-16T05:01:33;12.80;;;5.35;;
64820;SDS011;51256;55.654;37.264;2022-08-16T05:04:00;10.80;;;5.80;;
64820;SDS011;51256;55.654;37.264;2022-08-16T05:06:25;17.63;;;5.93;;
64820;SDS011;51256;55.654;37.264;2022-08-16T05:08:51;11.75;;;5.18;;
64820;SDS011;51256;55.654;37.264;2022-08-16T05:11:16;12.75;;;5.72;;
64820;SDS011;51256;55.654;37.264;2022-08-16T05:13:43;13.55;;;5.70;;
64820;SDS011;51256;55.654;37.264;2022-08-16T05:16:15;14.48;;;5.70;;
64820;SDS011;51256;55.654;37.264;2022-08-16T05:18:44;9.55;;;5.72;;
64820;SDS011;51256;55.654;37.264;2022-08-16T05:21:10;10.23;;;5.82;;
64820;SDS011;51256;55.654;37.264;2022-08-16T05:23:36;8.20;;;5.25;;
64820;SDS011;51256;55.654;37.264;2022-08-16T05:26:02;11.68;;;5.22;;
64820;SDS011;51256;55.654;37.264;2022-08-16T05:28:28;10.13;;;5.53;;
64820;SDS011;51256;55.654;37.264;2022-08-16T05:30:53;16.20;;;5.47;;
64820;SDS011;51256;55.654;37.264;2022-08-16T05:33:19;10.57;;;5.57;;
64820;SDS011;51256;55.654;37.264;2022-08-16T05:35:46;13.07;;;5.70;;
64820;SDS011;51256;55.654;37.264;2022-08-16T05:38:12;11.77;;;5.43;;
64820;SDS011;51256;55.654;37.264;2022-08-16T05:40:38;11.00;;;5.30;;
64820;SDS011;51256;55.654;37.264;2022-08-16T05:43:04;14.20;;;5.25;;
64820;SDS011;51256;55.654;37.264;2022-08-16T05:45:30;17.58;;;5.38;;
64820;SDS011;51256;55.654;37.264;2022-08-16T05:47:56;11.05;;;5.55;;
64820;SDS011;51256;55.654;37.264;2022-08-16T05:50:22;11.55;;;5.43;;
64820;SDS011;51256;55.654;37.264;2022-08-16T05:52:47;11.52;;;4.97;;
64820;SDS011;51256;55.654;37.264;2022-08-16T05:55:13;10.88;;;5.30;;
64820;SDS011;51256;55.654;37.264;2022-08-16T05:57:41;9.50;;;5.38;;
64820;SDS011;51256;55.654;37.264;2022-08-16T06:00:08;14.73;;;5.50;;
64820;SDS011;51256;55.654;37.264;2022-08-16T06:02:36;9.27;;;5.38;;
64820;SDS011;51256;55.654;37.264;2022-08-16T06:05:02;13.93;;;5.35;;
64820;SDS011;51256;55.654;37.264;2022-08-16T06:07:29;15.27;;;5.70;;
64820;SDS011;51256;55.654;37.264;2022-08-16T06:09:55;11.68;;;5.10;;
64820;SDS011;51256;55.654;37.264;2022-08-16T06:12:23;9.02;;;5.20;;
64820;SDS011;51256;55.654;37.264;2022-08-16T06:14:48;8.65;;;5.00;;
64820;SDS011;51256;55.654;37.264;2022-08-16T06:17:14;8.68;;;5.30;;
64820;SDS011;51256;55.654;37.264;2022-08-16T06:19:43;12.05;;;5.28;;
64820;SDS011;51256;55.654;37.264;2022-08-16T06:22:08;14.07;;;5.32;;
64820;SDS011;51256;55.654;37.264;2022-08-16T06:24:35;10.85;;;5.45;;
64820;SDS011;51256;55.654;37.264;2022-08-16T06:27:01;11.25;;;5.05;;
64820;SDS011;51256;55.654;37.264;2022-08-16T06:29:29;11.85;;;5.65;;
64820;SDS011;51256;55.654;37.264;2022-08-16T06:31:55;18.05;;;5.47;;
64820;SDS011;51256;55.654;37.264;2022-08-16T06:34:21;13.32;;;5.00;;
64820;SDS011;51256;55.654;37.264;2022-08-16T06:36:46;11.70;;;5.40;;
64820;SDS011;51256;55.654;37.264;2022-08-16T06:39:12;9.98;;;5.50;;
64820;SDS011;51256;55.654;37.264;2022-08-16T06:41:40;12.45;;;5.20;;
64820;SDS011;51256;55.654;37.264;2022-08-16T06:44:05;13.35;;;5.95;;
64820;SDS011;51256;55.654;37.264;2022-08-16T06:46:32;11.10;;;5.20;;
64820;SDS011;51256;55.654;37.264;2022-08-16T06:49:09;12.75;;;5.90;;
64820;SDS011;51256;55.654;37.264;2022-08-16T06:51:36;14.07;;;5.50;;
64820;SDS011;51256;55.654;37.264;2022-08-16T06:54:05;15.32;;;5.35;;
64820;SDS011;51256;55.654;37.264;2022-08-16T06:56:32;12.63;;;5.43;;
64820;SDS011;51256;55.654;37.264;2022-08-16T06:58:58;11.88;;;5.45;;
64820;SDS011;51256;55.654;37.264;2022-08-16T07:01:24;12.25;;;5.30;;
64820;SDS011;51256;55.654;37.264;2022-08-16T07:03:50;12.98;;;5.30;;
64820;SDS011;51256;55.654;37.264;2022-08-16T07:06:20;16.27;;;6.03;;
64820;SDS011;51256;55.654;37.264;2022-08-16T07:08:46;9.73;;;5.15;;
64820;SDS011;51256;55.654;37.264;2022-08-16T07:11:13;16.02;;;5.95;;
64820;SDS011;51256;55.654;37.264;2022-08-16T07:13:41;11.80;;;6.00;;
64820;SDS011;51256;55.654;37.264;2022-08-16T07:16:11;14.13;;;5.55;;
64820;SDS011;51256;55.654;37.264;2022-08-16T07:18:42;17.65;;;5.80;;
64820;SDS011;51256;55.654;37.264;2022-08-16T07:21:11;16.58;;;5.55;;
64820;SDS011;51256;55.654;37.264;2022-08-16T07:23:40;14.27;;;5.97;;
64820;SDS011;51256;55.654;37.264;2022-08-16T07:26:10;12.90;;;5.47;;
64820;SDS011;51256;55.654;37.264;2022-08-16T07:28:42;13.65;;;5.72;;
64820;SDS011;51256;55.654;37.264;2022-08-16T07:31:08;11.60;;;5.05;;
64820;SDS011;51256;55.654;37.264;2022-08-16T07:33:34;14.63;;;5.30;;
64820;SDS011;51256;55.654;37.264;2022-08-16T07:36:02;21.05;;;5.93;;
64820;SDS011;51256;55.654;37.264;2022-08-16T07:38:29;15.07;;;5.68;;
64820;SDS011;51256;55.654;37.264;2022-08-16T07:40:55;11.88;;;5.35;;
64820;SDS011;51256;55.654;37.264;2022-08-16T07:43:22;14.55;;;5.68;;
64820;SDS011;51256;55.654;37.264;2022-08-16T07:45:49;12.23;;;5.70;;
64820;SDS011;51256;55.654;37.264;2022-08-16T07:48:17;11.73;;;5.40;;
64820;SDS011;51256;55.654;37.264;2022-08-16T07:50:43;16.67;;;5.43;;
64820;SDS011;51256;55.654;37.264;2022-08-16T07:53:13;11.30;;;5.22;;
64820;SDS011;51256;55.654;37.264;2022-08-16T07:55:40;12.23;;;5.88;;
64820;SDS011;51256;55.654;37.264;2022-08-16T07:58:09;15.15;;;5.90;;
64820;SDS011;51256;55.654;37.264;2022-08-16T08:00:38;10.60;;;5.30;;
64820;SDS011;51256;55.654;37.264;2022-08-16T08:03:03;7.95;;;5.43;;
64820;SDS011;51256;55.654;37.264;2022-08-16T08:05:29;13.38;;;5.28;;
64820;SDS011;51256;55.654;37.264;2022-08-16T08:07:58;11.70;;;5.75;;
64820;SDS011;51256;55.654;37.264;2022-08-16T08:10:24;12.50;;;5.55;;
64820;SDS011;51256;55.654;37.264;2022-08-16T08:12:53;10.57;;;5.32;;
64820;SDS011;51256;55.654;37.264;2022-08-16T08:15:21;17.65;;;5.78;;
64820;SDS011;51256;55.654;37.264;2022-08-16T08:17:48;10.05;;;5.20;;
64820;SDS011;51256;55.654;37.264;2022-08-16T08:20:18;11.77;;;5.10;;
64820;SDS011;51256;55.654;37.264;2022-08-16T08:22:46;12.10;;;5.82;;
64820;SDS011;51256;55.654;37.264;2022-08-16T08:25:13;16.00;;;5.47;;
64820;SDS011;51256;55.654;37.264;2022-08-16T08:27:39;14.88;;;5.43;;
64820;SDS011;51256;55.654;37.264;2022-08-16T08:30:10;13.18;;;5.60;;
64820;SDS011;51256;55.654;37.264;2022-08-16T08:32:40;14.40;;;5.72;;
64820;SDS011;51256;55.654;37.264;2022-08-16T08:38:17;11.82;;;5.60;;
64820;SDS011;51256;55.654;37.264;2022-08-16T08:40:54;13.48;;;5.85;;
64820;SDS011;51256;55.654;37.264;2022-08-16T08:43:23;20.08;;;5.72;;
64820;SDS011;51256;55.654;37.264;2022-08-16T08:45:52;12.75;;;5.88;;
64820;SDS011;51256;55.654;37.264;2022-08-16T08:48:22;16.00;;;5.72;;
64820;SDS011;51256;55.654;37.264;2022-08-16T08:50:51;12.27;;;5.75;;
64820;SDS011;51256;55.654;37.264;2022-08-16T08:53:16;11.13;;;5.70;;
64820;SDS011;51256;55.654;37.264;2022-08-16T08:55:42;16.27;;;5.78;;
64820;SDS011;51256;55.654;37.264;2022-08-16T08:58:07;11.65;;;5.97;;
64820;SDS011;51256;55.654;37.264;2022-08-16T09:00:37;10.27;;;5.50;;
64820;SDS011;51256;55.654;37.264;2022-08-16T09:03:14;10.77;;;5.25;;
64820;SDS011;51256;55.654;37.264;2022-08-16T09:05:40;7.70;;;5.50;;
64820;SDS011;51256;55.654;37.264;2022-08-16T09:08:06;10.77;;;5.72;;
64820;SDS011;51256;55.654;37.264;2022-08-16T09:10:33;8.43;;;5.35;;
64820;SDS011;51256;55.654;37.264;2022-08-16T09:12:58;10.23;;;5.70;;
64820;SDS011;51256;55.654;37.264;2022-08-16T09:15:24;9.88;;;6.07;;
64820;SDS011;51256;55.654;37.264;2022-08-16T09:17:51;10.60;;;5.60;;
64820;SDS011;51256;55.654;37.264;2022-08-16T09:20:22;10.23;;;6.20;;
64820;SDS011;51256;55.654;37.264;2022-08-16T09:22:53;11.65;;;5.53;;
64820;SDS011;51256;55.654;37.264;2022-08-16T09:25:19;12.40;;;5.78;;
64820;SDS011;51256;55.654;37.264;2022-08-16T09:27:45;13.43;;;5.70;;
64820;SDS011;51256;55.654;37.264;2022-08-16T09:30:10;15.20;;;5.53;;
64820;SDS011;51256;55.654;37.264;2022-08-16T09:32:57;12.63;;;6.15;;
64820;SDS011;51256;55.654;37.264;2022-08-16T09:35:23;14.27;;;5.80;;
64820;SDS011;51256;55.654;37.264;2022-08-16T09:37:58;15.05;;;5.75;;
64820;SDS011;51256;55.654;37.264;2022-08-16T09:40:26;16.30;;;6.28;;
64820;SDS011;51256;55.654;37.264;2022-08-16T09:42:55;14.55;;;5.65;;
64820;SDS011;51256;55.654;37.264;2022-08-16T09:45:23;10.63;;;6.00;;
64820;SDS011;51256;55.654;37.264;2022-08-16T09:47:49;17.38;;;5.93;;
64820;SDS011;51256;55.654;37.264;2022-08-16T09:50:21;13.38;;;5.85;;
64820;SDS011;51256;55.654;37.264;2022-08-16T09:52:49;13.43;;;5.60;;
64820;SDS011;51256;55.654;37.264;2022-08-16T09:55:14;17.02;;;6.30;;
64820;SDS011;51256;55.654;37.264;2022-08-16T09:57:40;10.57;;;5.80;;
64820;SDS011;51256;55.654;37.264;2022-08-16T10:00:06;17.40;;;5.93;;
64820;SDS011;51256;55.654;37.264;2022-08-16T10:02:36;14.57;;;5.85;;
64820;SDS011;51256;55.654;37.264;2022-08-16T10:05:02;12.80;;;5.82;;
64820;SDS011;51256;55.654;37.264;2022-08-16T10:07:28;13.15;;;5.90;;
64820;SDS011;51256;55.654;37.264;2022-08-16T10:09:55;10.80;;;5.80;;
64820;SDS011;51256;55.654;37.264;2022-08-16T10:12:22;12.13;;;5.90;;
64820;SDS011;51256;55.654;37.264;2022-08-16T10:15:10;13.23;;;6.22;;
64820;SDS011;51256;55.654;37.264;2022-08-16T10:17:59;13.77;;;5.95;;
64820;SDS011;51256;55.654;37.264;2022-08-16T10:20:34;12.30;;;5.70;;
64820;SDS011;51256;55.654;37.264;2022-08-16T10:23:06;13.88;;;6.25;;
64820;SDS011;51256;55.654;37.264;2022-08-16T10:25:42;13.73;;;6.03;;
64820;SDS011;51256;55.654;37.264;2022-08-16T10:28:12;10.40;;;6.10;;
64820;SDS011;51256;55.654;37.264;2022-08-16T10:30:38;15.98;;;6.22;;
64820;SDS011;51256;55.654;37.264;2022-08-16T10:33:07;10.85;;;5.90;;
64820;SDS011;51256;55.654;37.264;2022-08-16T10:35:33;13.32;;;6.28;;
64820;SDS011;51256;55.654;37.264;2022-08-16T10:38:05;15.53;;;6.07;;
64820;SDS011;51256;55.654;37.264;2022-08-16T10:40:31;12.77;;;5.80;;
64820;SDS011;51256;55.654;37.264;2022-08-16T10:42:57;15.07;;;5.60;;
64820;SDS011;51256;55.654;37.264;2022-08-16T10:45:29;12.60;;;5.82;;
64820;SDS011;51256;55.654;37.264;2022-08-16T10:47:56;15.73;;;5.60;;
64820;SDS011;51256;55.654;37.264;2022-08-16T10:50:23;11.13;;;5.50;;
64820;SDS011;51256;55.654;37.264;2022-08-16T10:52:54;15.57;;;5.50;;
64820;SDS011;51256;55.654;37.264;2022-08-16T10:55:22;13.93;;;5.70;;
64820;SDS011;51256;55.654;37.264;2022-08-16T10:57:48;14.67;;;5.43;;
64820;SDS011;51256;55.654;37.264;2022-08-16T11:00:29;13.70;;;5.93;;
64820;SDS011;51256;55.654;37.264;2022-08-16T11:02:59;17.15;;;5.93;;
64820;SDS011;51256;55.654;37.264;2022-08-16T11:05:29;11.13;;;5.68;;
64820;SDS011;51256;55.654;37.264;2022-08-16T11:08:11;14.05;;;5.78;;
64820;SDS011;51256;55.654;37.264;2022-08-16T11:10:41;10.50;;;5.90;;
64820;SDS011;51256;55.654;37.264;2022-08-16T11:13:09;12.32;;;5.88;;
64820;SDS011;51256;55.654;37.264;2022-08-16T11:15:39;14.00;;;6.30;;
64820;SDS011;51256;55.654;37.264;2022-08-16T11:18:07;10.48;;;6.32;;
64820;SDS011;51256;55.654;37.264;2022-08-16T11:20:36;10.07;;;6.70;;
64820;SDS011;51256;55.654;37.264;2022-08-16T11:23:03;11.38;;;7.10;;
64820;SDS011;51256;55.654;37.264;2022-08-16T11:27:58;8.60;;;6.43;;
64820;SDS011;51256;55.654;37.264;2022-08-16T11:30:28;15.25;;;6.70;;
64820;SDS011;51256;55.654;37.264;2022-08-16T11:32:56;11.75;;;6.78;;
64820;SDS011;51256;55.654;37.264;2022-08-16T11:35:24;16.33;;;7.10;;
64820;SDS011;51256;55.654;37.264;2022-08-16T11:37:55;14.95;;;6.55;;
64820;SDS011;51256;55.654;37.264;2022-08-16T11:40:26;11.32;;;6.60;;
64820;SDS011;51256;55.654;37.264;2022-08-16T11:42:56;13.48;;;6.55;;
64820;SDS011;51256;55.654;37.264;2022-08-16T11:45:22;13.45;;;6.80;;
64820;SDS011;51256;55.654;37.264;2022-08-16T11:47:48;14.02;;;6.15;;
64820;SDS011;51256;55.654;37.264;2022-08-16T11:50:24;9.95;;;6.70;;
64820;SDS011;51256;55.654;37.264;2022-08-16T11:53:01;15.85;;;6.53;;
64820;SDS011;51256;55.654;37.264;2022-08-16T11:55:37;15.73;;;6.53;;
64820;SDS011;51256;55.654;37.264;2022-08-16T11:58:06;10.60;;;6.75;;
64820;SDS011;51256;55.654;37.264;2022-08-16T12:00:33;11.23;;;6.72;;
64820;SDS011;51256;55.654;37.264;2022-08-16T12:02:59;12.32;;;7.10;;
64820;SDS011;51256;55.654;37.264;2022-08-16T12:05:25;11.50;;;6.82;;
64820;SDS011;51256;55.654;37.264;2022-08-16T12:07:51;11.98;;;7.03;;
64820;SDS011;51256;55.654;37.264;2022-08-16T12:10:19;8.73;;;6.78;;
64820;SDS011;51256;55.654;37.264;2022-08-16T12:12:46;11.68;;;6.88;;
64820;SDS011;51256;55.654;37.264;2022-08-16T12:15:12;13.00;;;6.80;;
64820;SDS011;51256;55.654;37.264;2022-08-16T12:17:39;10.40;;;6.75;;
64820;SDS011;51256;55.654;37.264;2022-08-16T12:20:08;11.27;;;7.10;;
64820;SDS011;51256;55.654;37.264;2022-08-16T12:22:39;14.32;;;6.82;;
64820;SDS011;51256;55.654;37.264;2022-08-16T12:25:06;13.85;;;6.90;;
64820;SDS011;51256;55.654;37.264;2022-08-16T12:27:34;11.63;;;6.72;;
64820;SDS011;51256;55.654;37.264;2022-08-16T12:30:01;11.70;;;6.40;;
64820;SDS011;51256;55.654;37.264;2022-08-16T12:32:28;13.63;;;6.97;;
64820;SDS011;51256;55.654;37.264;2022-08-16T12:34:53;14.85;;;7.22;;
64820;SDS011;51256;55.654;37.264;2022-08-16T12:37:19;12.63;;;6.63;;
64820;SDS011;51256;55.654;37.264;2022-08-16T12:39:45;12.98;;;6.53;;
64820;SDS011;51256;55.654;37.264;2022-08-16T12:42:11;9.15;;;6.55;;
64820;SDS011;51256;55.654;37.264;2022-08-16T12:44:37;11.60;;;6.40;;
64820;SDS011;51256;55.654;37.264;2022-08-16T12:47:06;13.27;;;6.40;;
64820;SDS011;51256;55.654;37.264;2022-08-16T12:49:53;8.70;;;6.63;;
64820;SDS011;51256;55.654;37.264;2022-08-16T12:52:22;10.38;;;6.85;;
64820;SDS011;51256;55.654;37.264;2022-08-16T12:54:47;13.20;;;6.65;;
64820;SDS011;51256;55.654;37.264;2022-08-16T12:57:13;10.48;;;6.70;;
64820;SDS011;51256;55.654;37.264;2022-08-16T12:59:38;12.65;;;6.82;;
64820;SDS011;51256;55.654;37.264;2022-08-16T13:02:04;12.75;;;7.40;;
64820;SDS011;51256;55.654;37.264;2022-08-16T13:04:31;12.52;;;7.07;;
64820;SDS011;51256;55.654;37.264;2022-08-16T13:06:58;13.00;;;6.97;;
64820;SDS011;51256;55.654;37.264;2022-08-16T13:09:25;19.60;;;6.97;;
64820;SDS011;51256;55.654;37.264;2022-08-16T13:12:02;17.08;;;6.57;;
64820;SDS011;51256;55.654;37.264;2022-08-16T13:14:37;24.45;;;7.18;;
64820;SDS011;51256;55.654;37.264;2022-08-16T13:17:06;23.10;;;7.40;;
64820;SDS011;51256;55.654;37.264;2022-08-16T13:19:36;18.58;;;7.32;;
64820;SDS011;51256;55.654;37.264;2022-08-16T13:22:03;23.13;;;7.72;;
64820;SDS011;51256;55.654;37.264;2022-08-16T13:24:28;12.98;;;6.63;;
64820;SDS011;51256;55.654;37.264;2022-08-16T13:26:54;17.77;;;7.35;;
64820;SDS011;51256;55.654;37.264;2022-08-16T13:29:20;14.77;;;6.80;;
64820;SDS011;51256;55.654;37.264;2022-08-16T13:31:45;10.70;;;7.10;;
64820;SDS011;51256;55.654;37.264;2022-08-16T13:34:11;11.57;;;7.57;;
64820;SDS011;51256;55.654;37.264;2022-08-16T13:36:36;13.63;;;7.07;;
64820;SDS011;51256;55.654;37.264;2022-08-16T13:39:02;10.75;;;7.13;;
64820;SDS011;51256;55.654;37.264;2022-08-16T13:41:28;11.82;;;7.10;;
64820;SDS011;51256;55.654;37.264;2022-08-16T13:43:56;16.30;;;7.50;;
64820;SDS011;51256;55.654;37.264;2022-08-16T13:46:24;9.95;;;7.35;;
64820;SDS011;51256;55.654;37.264;2022-08-16T13:48:50;15.10;;;7.43;;
64820;SDS011;51256;55.654;37.264;2022-08-16T13:51:16;11.55;;;7.15;;
64820;SDS011;51256;55.654;37.264;2022-08-16T13:53:47;13.68;;;7.55;;
64820;SDS011;51256;55.654;37.264;2022-08-16T13:56:14;14.32;;;7.40;;
64820;SDS011;51256;55.654;37.264;2022-08-16T13:58:42;19.90;;;7.53;;
64820;SDS011;51256;55.654;37.264;2022-08-16T14:01:07;12.48;;;7.75;;
64820;SDS011;51256;55.654;37.264;2022-08-16T14:03:39;11.90;;;7.45;;
64820;SDS011;51256;55.654;37.264;2022-08-16T14:06:08;13.50;;;7.70;;
64820;SDS011;51256;55.654;37.264;2022-08-16T14:08:35;9.90;;;8.15;;
64820;SDS011;51256;55.654;37.264;2022-08-16T14:11:07;16.90;;;8.10;;
64820;SDS011;51256;55.654;37.264;2022-08-16T14:13:34;19.90;;;8.43;;
64820;SDS011;51256;55.654;37.264;2022-08-16T14:16:00;13.93;;;8.07;;
64820;SDS011;51256;55.654;37.264;2022-08-16T14:18:26;18.30;;;8.43;;
64820;SDS011;51256;55.654;37.264;2022-08-16T14:20:55;17.95;;;8.23;;
64820;SDS011;51256;55.654;37.264;2022-08-16T14:23:23;17.25;;;8.35;;
64820;SDS011;51256;55.654;37.264;2022-08-16T14:25:48;11.85;;;8.40;;
64820;SDS011;51256;55.654;37.264;2022-08-16T14:28:14;17.15;;;8.63;;
64820;SDS011;51256;55.654;37.264;2022-08-16T14:30:40;12.15;;;7.80;;
64820;SDS011;51256;55.654;37.264;2022-08-16T14:33:06;13.23;;;8.73;;
64820;SDS011;51256;55.654;37.264;2022-08-16T14:35:32;13.60;;;8.30;;
64820;SDS011;51256;55.654;37.264;2022-08-16T14:38:00;16.33;;;8.82;;
64820;SDS011;51256;55.654;37.264;2022-08-16T14:40:26;13.93;;;8.35;;
64820;SDS011;51256;55.654;37.264;2022-08-16T14:42:53;13.52;;;8.50;;
64820;SDS011;51256;55.654;37.264;2022-08-16T14:45:25;14.60;;;8.43;;